createdAt,value
2019-02-23T00:00:01.227Z,94.30
2019-02-23T00:01:01.169Z,94.40
2019-02-23T00:02:01.162Z,94.40
2019-02-23T00:03:01.149Z,94.30
2019-02-23T00:04:01.162Z,94.61
2019-02-23T00:05:01.133Z,94.20
2019-02-23T00:06:01.119Z,93.95
2019-02-23T00:07:01.103Z,94.30
2019-02-23T00:08:01.099Z,94.40
2019-02-23T00:09:01.114Z,94.51
2019-02-23T00:10:01.077Z,93.78
2019-02-23T00:11:01.070Z,94.09
2019-02-23T00:12:01.052Z,93.53
2019-02-23T00:13:01.042Z,93.74
2019-02-23T00:14:01.057Z,93.37
2019-02-23T00:15:01.019Z,93.37
2019-02-23T00:16:01.061Z,93.53
2019-02-23T00:17:00.999Z,93.74
2019-02-23T00:18:00.995Z,93.22
2019-02-23T00:19:01.008Z,93.47
2019-02-23T00:20:00.968Z,93.01
2019-02-23T00:21:00.961Z,93.01
2019-02-23T00:22:00.951Z,93.01
2019-02-23T00:23:00.938Z,93.26
2019-02-23T00:24:00.960Z,93.22
2019-02-23T00:25:00.916Z,93.37
2019-02-23T00:26:00.904Z,93.22
2019-02-23T00:27:00.904Z,93.12
2019-02-23T00:28:00.890Z,93.16
2019-02-23T00:29:00.916Z,93.22
2019-02-23T00:30:00.863Z,92.94
2019-02-23T00:31:00.851Z,93.22
2019-02-23T00:32:00.847Z,93.32
2019-02-23T00:33:00.835Z,93.26
2019-02-23T00:34:00.851Z,93.12
2019-02-23T00:35:00.813Z,93.12
2019-02-23T00:36:00.800Z,93.26
2019-02-23T00:37:00.862Z,92.74
2019-02-23T00:38:00.782Z,93.16
2019-02-23T00:39:00.793Z,93.47
2019-02-23T00:40:00.770Z,93.68
2019-02-23T00:41:00.747Z,92.94
2019-02-23T00:42:00.737Z,92.63
2019-02-23T00:43:00.730Z,93.26
2019-02-23T00:44:00.741Z,93.01
2019-02-23T00:45:00.706Z,93.16
2019-02-23T00:46:00.706Z,93.05
2019-02-23T00:47:00.682Z,92.94
2019-02-23T00:48:00.677Z,93.05
2019-02-23T00:49:00.688Z,92.94
2019-02-23T00:50:00.651Z,93.26
2019-02-23T00:51:00.650Z,92.94
2019-02-23T00:52:00.632Z,93.16
2019-02-23T00:53:00.619Z,92.69
2019-02-23T00:54:00.643Z,92.43
2019-02-23T00:55:00.605Z,92.94
2019-02-23T00:56:00.589Z,93.26
2019-02-23T00:57:00.584Z,92.63
2019-02-23T00:58:00.572Z,92.63
2019-02-23T00:59:00.589Z,93.26
2019-02-23T01:00:00.585Z,92.84
2019-02-23T01:01:00.539Z,93.16
2019-02-23T01:02:00.527Z,92.94
2019-02-23T01:03:00.525Z,92.74
2019-02-23T01:04:00.531Z,92.94
2019-02-23T01:05:00.495Z,92.84
2019-02-23T01:06:00.496Z,92.84
2019-02-23T01:07:00.471Z,92.43
2019-02-23T01:08:00.556Z,92.28
2019-02-23T01:09:00.478Z,92.22
2019-02-23T01:10:00.445Z,91.97
2019-02-23T01:11:00.431Z,91.55
2019-02-23T01:12:00.419Z,92.07
2019-02-23T01:13:00.411Z,91.91
2019-02-23T01:14:00.423Z,91.86
2019-02-23T01:15:00.395Z,91.86
2019-02-23T01:16:00.379Z,91.97
2019-02-23T01:17:00.367Z,91.86
2019-02-23T01:18:00.358Z,91.45
2019-02-23T01:19:00.389Z,91.45
2019-02-23T01:20:00.354Z,91.14
2019-02-23T01:21:00.330Z,90.72
2019-02-23T01:22:00.316Z,91.24
2019-02-23T01:23:00.304Z,90.58
2019-02-23T01:24:00.299Z,91.00
2019-02-23T01:25:00.368Z,90.72
2019-02-23T01:26:00.274Z,90.62
2019-02-23T01:27:00.264Z,90.93
2019-02-23T01:28:00.253Z,90.89
2019-02-23T01:29:00.244Z,90.62
2019-02-23T01:30:00.352Z,90.89
2019-02-23T01:31:00.222Z,90.58
2019-02-23T01:32:00.212Z,90.89
2019-02-23T01:33:00.206Z,91.10
2019-02-23T01:34:00.187Z,90.52
2019-02-23T01:35:00.297Z,90.69
2019-02-23T01:36:00.168Z,90.69
2019-02-23T01:37:00.158Z,91.35
2019-02-23T01:38:00.155Z,90.72
2019-02-23T01:39:00.135Z,91.24
2019-02-23T01:40:00.321Z,90.69
2019-02-23T01:41:00.116Z,90.79
2019-02-23T01:42:00.109Z,90.93
2019-02-23T01:43:00.093Z,90.89
2019-02-23T01:44:00.621Z,90.62
2019-02-23T01:45:00.307Z,90.62
2019-02-23T01:46:00.066Z,90.89
2019-02-23T01:47:00.052Z,90.93
2019-02-23T01:48:00.046Z,91.03
2019-02-23T01:49:00.034Z,90.93
2019-02-23T01:50:00.048Z,90.83
2019-02-23T01:51:00.010Z,90.83
2019-02-23T01:51:59.999Z,90.62
2019-02-23T01:52:59.990Z,90.62
2019-02-23T01:53:59.977Z,90.72
2019-02-23T01:54:59.993Z,90.93
2019-02-23T01:55:59.959Z,90.83
2019-02-23T01:56:59.949Z,90.62
2019-02-23T01:57:59.935Z,90.62
2019-02-23T01:58:59.927Z,90.87
2019-02-23T01:59:59.939Z,90.66
2019-02-23T02:00:59.904Z,90.62
2019-02-23T02:01:59.892Z,91.08
2019-02-23T02:02:59.888Z,90.62
2019-02-23T02:03:59.877Z,90.72
2019-02-23T02:04:59.887Z,90.66
2019-02-23T02:05:59.857Z,90.77
2019-02-23T02:06:59.843Z,91.28
2019-02-23T02:07:59.832Z,91.28
2019-02-23T02:08:59.822Z,91.49
2019-02-23T02:09:59.832Z,91.39
2019-02-23T02:10:59.804Z,91.28
2019-02-23T02:11:59.789Z,91.43
2019-02-23T02:12:59.786Z,91.18
2019-02-23T02:13:59.768Z,91.53
2019-02-23T02:14:59.800Z,91.74
2019-02-23T02:15:59.749Z,91.33
2019-02-23T02:16:59.735Z,91.64
2019-02-23T02:17:59.728Z,91.53
2019-02-23T02:18:59.722Z,91.53
2019-02-23T02:20:10.149Z,91.53
2019-02-23T02:21:00.697Z,91.53
2019-02-23T02:21:59.680Z,91.27
2019-02-23T02:22:59.672Z,91.16
2019-02-23T02:23:59.661Z,91.58
2019-02-23T02:24:59.675Z,91.47
2019-02-23T02:25:59.652Z,90.95
2019-02-23T02:26:59.628Z,91.62
2019-02-23T02:27:59.622Z,91.41
2019-02-23T02:28:59.610Z,91.83
2019-02-23T02:29:59.636Z,91.62
2019-02-23T02:30:59.592Z,91.72
2019-02-23T02:31:59.577Z,91.62
2019-02-23T02:32:59.574Z,91.93
2019-02-23T02:33:59.561Z,92.08
2019-02-23T02:34:59.572Z,91.97
2019-02-23T02:35:59.539Z,92.08
2019-02-23T02:36:59.524Z,92.08
2019-02-23T02:37:59.518Z,91.97
2019-02-23T02:38:59.507Z,91.56
2019-02-23T02:39:59.515Z,91.87
2019-02-23T02:40:59.484Z,91.66
2019-02-23T02:41:59.477Z,91.97
2019-02-23T02:42:59.462Z,91.66
2019-02-23T02:43:59.449Z,91.97
2019-02-23T02:44:59.465Z,91.97
2019-02-23T02:45:59.438Z,92.22
2019-02-23T02:46:59.423Z,92.12
2019-02-23T02:47:59.418Z,92.22
2019-02-23T02:48:59.402Z,92.43
2019-02-23T02:49:59.411Z,92.33
2019-02-23T02:50:59.378Z,92.54
2019-02-23T02:51:59.364Z,92.58
2019-02-23T02:52:59.358Z,92.89
2019-02-23T02:53:59.355Z,93.31
2019-02-23T02:54:59.362Z,93.31
2019-02-23T02:55:59.324Z,93.41
2019-02-23T02:56:59.312Z,93.62
2019-02-23T02:57:59.312Z,93.35
2019-02-23T02:58:59.297Z,93.35
2019-02-23T02:59:59.306Z,93.24
2019-02-23T03:00:59.272Z,93.52
2019-02-23T03:01:59.266Z,93.66
2019-02-23T03:02:59.256Z,93.04
2019-02-23T03:03:59.243Z,93.31
2019-02-23T03:04:59.314Z,92.99
2019-02-23T03:05:59.222Z,93.24
2019-02-23T03:06:59.217Z,93.46
2019-02-23T03:07:59.202Z,93.24
2019-02-23T03:08:59.192Z,92.93
2019-02-23T03:10:09.015Z,93.46
2019-02-23T03:10:59.165Z,93.04
2019-02-23T03:11:59.158Z,92.83
2019-02-23T03:12:59.144Z,93.35
2019-02-23T03:13:59.137Z,92.83
2019-02-23T03:14:59.158Z,93.14
2019-02-23T03:15:59.121Z,93.24
2019-02-23T03:16:59.102Z,93.56
2019-02-23T03:17:59.091Z,93.66
2019-02-23T03:18:59.088Z,93.29
2019-02-23T03:19:59.096Z,93.24
2019-02-23T03:20:59.065Z,93.40
2019-02-23T03:21:59.088Z,93.29
2019-02-23T03:22:59.042Z,93.50
2019-02-23T03:23:59.028Z,93.29
2019-02-23T03:24:59.046Z,93.29
2019-02-23T03:25:59.011Z,93.29
2019-02-23T03:26:59.001Z,92.77
2019-02-23T03:27:58.997Z,93.18
2019-02-23T03:28:58.976Z,92.97
2019-02-23T03:29:58.968Z,93.44
2019-02-23T03:30:58.986Z,92.46
2019-02-23T03:31:58.946Z,93.40
2019-02-23T03:32:58.937Z,92.60
2019-02-23T03:33:58.927Z,92.56
2019-02-23T03:34:58.915Z,92.56
2019-02-23T03:35:58.952Z,92.77
2019-02-23T03:36:58.893Z,92.46
2019-02-23T03:37:58.884Z,92.18
2019-02-23T03:38:58.873Z,92.46
2019-02-23T03:39:58.866Z,92.29
2019-02-23T03:40:58.880Z,92.18
2019-02-23T03:41:58.844Z,91.72
2019-02-23T03:42:58.833Z,91.46
2019-02-23T03:43:58.822Z,91.87
2019-02-23T03:44:58.813Z,91.66
2019-02-23T03:45:58.830Z,91.62
2019-02-23T03:46:58.786Z,91.66
2019-02-23T03:47:58.785Z,91.56
2019-02-23T03:48:58.767Z,91.66
2019-02-23T03:49:58.756Z,91.77
2019-02-23T03:50:58.772Z,91.66
2019-02-23T03:51:58.736Z,92.02
2019-02-23T03:52:58.726Z,92.12
2019-02-23T03:53:58.714Z,91.81
2019-02-23T03:54:58.700Z,91.91
2019-02-23T03:55:58.720Z,91.46
2019-02-23T03:56:58.687Z,91.91
2019-02-23T03:57:58.676Z,91.66
2019-02-23T03:58:58.661Z,91.87
2019-02-23T03:59:58.647Z,91.66
2019-02-23T04:00:58.671Z,91.97
2019-02-23T04:01:58.631Z,91.56
2019-02-23T04:02:58.621Z,91.66
2019-02-23T04:03:58.609Z,91.71
2019-02-23T04:04:58.596Z,91.60
2019-02-23T04:05:58.617Z,91.50
2019-02-23T04:06:58.576Z,91.35
2019-02-23T04:07:58.569Z,91.35
2019-02-23T04:08:58.560Z,91.46
2019-02-23T04:09:58.550Z,91.66
2019-02-23T04:10:58.570Z,91.60
2019-02-23T04:11:58.531Z,91.39
2019-02-23T04:12:58.518Z,91.04
2019-02-23T04:13:58.573Z,90.83
2019-02-23T04:14:58.495Z,90.45
2019-02-23T04:15:58.511Z,90.87
2019-02-23T04:16:58.472Z,90.56
2019-02-23T04:17:58.469Z,90.41
2019-02-23T04:18:58.452Z,90.25
2019-02-23T04:19:58.445Z,90.45
2019-02-23T04:21:01.747Z,90.25
2019-02-23T04:21:58.426Z,90.35
2019-02-23T04:22:58.410Z,90.66
2019-02-23T04:23:58.400Z,90.35
2019-02-23T04:24:58.394Z,90.14
2019-02-23T04:25:58.400Z,90.03
2019-02-23T04:26:58.375Z,89.93
2019-02-23T04:27:58.356Z,90.03
2019-02-23T04:28:58.348Z,89.83
2019-02-23T04:29:58.338Z,90.28
2019-02-23T04:30:58.352Z,90.08
2019-02-23T04:31:58.325Z,90.56
2019-02-23T04:32:58.318Z,90.03
2019-02-23T04:33:58.297Z,90.14
2019-02-23T04:34:58.297Z,90.45
2019-02-23T04:35:58.308Z,90.81
2019-02-23T04:36:58.264Z,90.81
2019-02-23T04:37:58.257Z,90.50
2019-02-23T04:38:58.246Z,90.91
2019-02-23T04:39:58.231Z,90.50
2019-02-23T04:40:58.254Z,90.50
2019-02-23T04:41:58.212Z,90.39
2019-02-23T04:42:58.206Z,90.70
2019-02-23T04:43:58.197Z,90.60
2019-02-23T04:44:58.196Z,90.39
2019-02-23T04:45:58.193Z,90.39
2019-02-23T04:46:58.164Z,90.18
2019-02-23T04:47:58.149Z,90.33
2019-02-23T04:48:58.139Z,90.50
2019-02-23T04:49:58.130Z,90.28
2019-02-23T04:50:58.152Z,90.60
2019-02-23T04:51:58.105Z,90.22
2019-02-23T04:52:58.095Z,90.75
2019-02-23T04:53:58.089Z,91.27
2019-02-23T04:54:58.185Z,90.85
2019-02-23T04:55:58.090Z,90.53
2019-02-23T04:56:58.085Z,90.53
2019-02-23T04:57:58.050Z,90.43
2019-02-23T04:58:58.040Z,90.64
2019-02-23T04:59:58.027Z,90.64
2019-02-23T05:00:58.035Z,90.64
2019-02-23T05:01:58.008Z,90.53
2019-02-23T05:02:58.015Z,90.22
2019-02-23T05:03:57.982Z,90.22
2019-02-23T05:04:57.969Z,90.37
2019-02-23T05:05:57.988Z,91.00
2019-02-23T05:06:57.952Z,90.58
2019-02-23T05:07:57.951Z,90.16
2019-02-23T05:08:57.928Z,90.26
2019-02-23T05:09:57.925Z,90.22
2019-02-23T05:10:57.934Z,90.01
2019-02-23T05:11:57.899Z,89.64
2019-02-23T05:12:57.891Z,89.53
2019-02-23T05:13:57.880Z,89.95
2019-02-23T05:14:57.865Z,90.06
2019-02-23T05:15:57.921Z,90.16
2019-02-23T05:16:57.845Z,89.95
2019-02-23T05:17:57.845Z,90.26
2019-02-23T05:18:57.831Z,89.74
2019-02-23T05:19:57.814Z,89.95
2019-02-23T05:20:57.833Z,89.64
2019-02-23T05:21:57.792Z,89.64
2019-02-23T05:22:57.785Z,89.53
2019-02-23T05:23:57.775Z,88.49
2019-02-23T05:24:57.767Z,89.11
2019-02-23T05:25:57.788Z,89.53
2019-02-23T05:26:57.740Z,89.36
2019-02-23T05:27:57.730Z,89.53
2019-02-23T05:28:57.723Z,89.22
2019-02-23T05:29:57.714Z,89.11
2019-02-23T05:30:57.728Z,89.05
2019-02-23T05:31:57.694Z,89.47
2019-02-23T05:32:57.676Z,89.01
2019-02-23T05:33:57.667Z,89.58
2019-02-23T05:34:57.657Z,89.15
2019-02-23T05:35:57.704Z,89.15
2019-02-23T05:36:57.640Z,89.36
2019-02-23T05:37:57.629Z,88.64
2019-02-23T05:38:57.613Z,88.74
2019-02-23T05:39:57.605Z,88.70
2019-02-23T05:40:57.592Z,88.74
2019-02-23T05:41:57.614Z,89.15
2019-02-23T05:43:01.035Z,89.51
2019-02-23T05:43:57.568Z,89.26
2019-02-23T05:44:57.560Z,88.95
2019-02-23T05:45:57.542Z,89.15
2019-02-23T05:46:57.551Z,89.05
2019-02-23T05:47:57.523Z,89.15
2019-02-23T05:48:57.508Z,88.57
2019-02-23T05:49:57.505Z,88.64
2019-02-23T05:50:57.491Z,88.42
2019-02-23T05:51:57.511Z,88.57
2019-02-23T05:52:57.469Z,88.84
2019-02-23T05:53:57.460Z,88.99
2019-02-23T05:54:57.443Z,88.95
2019-02-23T05:55:57.505Z,88.32
2019-02-23T05:56:57.453Z,88.57
2019-02-23T05:57:57.421Z,88.67
2019-02-23T05:58:57.406Z,88.57
2019-02-23T05:59:57.395Z,88.57
2019-02-23T06:00:57.389Z,88.99
2019-02-23T06:01:57.439Z,88.74
2019-02-23T06:02:57.364Z,88.53
2019-02-23T06:03:57.347Z,88.46
2019-02-23T06:04:57.349Z,88.32
2019-02-23T06:05:57.337Z,88.57
2019-02-23T06:06:57.347Z,88.36
2019-02-23T06:07:57.309Z,88.36
2019-02-23T06:08:57.303Z,88.46
2019-02-23T06:09:57.288Z,88.57
2019-02-23T06:10:57.278Z,88.67
2019-02-23T06:11:57.785Z,88.78
2019-02-23T06:12:57.252Z,89.23
2019-02-23T06:13:57.243Z,89.34
2019-02-23T06:14:57.236Z,89.45
2019-02-23T06:15:57.231Z,89.55
2019-02-23T06:16:57.238Z,90.28
2019-02-23T06:17:57.202Z,89.76
2019-02-23T06:18:57.192Z,90.08
2019-02-23T06:19:57.182Z,89.86
2019-02-23T06:20:57.168Z,89.86
2019-02-23T06:21:57.188Z,89.97
2019-02-23T06:22:57.154Z,89.86
2019-02-23T06:23:57.182Z,90.18
2019-02-23T06:24:57.135Z,90.43
2019-02-23T06:25:57.125Z,90.43
2019-02-23T06:26:57.131Z,90.70
2019-02-23T06:27:57.095Z,90.74
2019-02-23T06:28:57.087Z,90.53
2019-02-23T06:29:57.078Z,90.64
2019-02-23T06:30:57.073Z,90.43
2019-02-23T06:31:57.079Z,90.22
2019-02-23T06:32:57.050Z,89.86
2019-02-23T06:33:57.037Z,89.90
2019-02-23T06:34:57.028Z,89.97
2019-02-23T06:35:57.023Z,90.43
2019-02-23T06:36:57.028Z,89.23
2019-02-23T06:37:56.996Z,88.92
2019-02-23T06:38:56.987Z,88.71
2019-02-23T06:39:56.975Z,88.36
2019-02-23T06:40:56.960Z,88.71
2019-02-23T06:41:56.982Z,88.50
2019-02-23T06:42:57.904Z,87.77
2019-02-23T06:43:56.933Z,87.84
2019-02-23T06:44:56.918Z,87.73
2019-02-23T06:45:56.911Z,87.94
2019-02-23T06:46:56.924Z,87.84
2019-02-23T06:47:56.890Z,87.21
2019-02-23T06:48:56.880Z,87.42
2019-02-23T06:49:56.865Z,87.63
2019-02-23T06:50:56.856Z,87.31
2019-02-23T06:52:04.285Z,87.42
2019-02-23T06:52:57.829Z,87.63
2019-02-23T06:53:56.828Z,87.52
2019-02-23T06:54:58.530Z,87.10
2019-02-23T06:55:56.793Z,87.17
2019-02-23T06:56:56.815Z,87.00
2019-02-23T06:57:56.788Z,87.17
2019-02-23T06:58:56.777Z,86.69
2019-02-23T06:59:56.779Z,86.54
2019-02-23T07:00:56.752Z,86.13
2019-02-23T07:01:56.854Z,86.23
2019-02-23T07:02:56.735Z,86.27
2019-02-23T07:03:56.740Z,86.33
2019-02-23T07:04:56.706Z,86.23
2019-02-23T07:05:56.718Z,86.23
2019-02-23T07:06:56.718Z,86.02
2019-02-23T07:07:56.673Z,86.02
2019-02-23T07:08:56.668Z,85.67
2019-02-23T07:09:56.669Z,85.08
2019-02-23T07:10:56.649Z,85.77
2019-02-23T07:11:56.662Z,85.77
2019-02-23T07:12:56.644Z,85.56
2019-02-23T07:13:56.869Z,85.46
2019-02-23T07:14:56.601Z,85.56
2019-02-23T07:15:56.592Z,85.67
2019-02-23T07:16:56.781Z,85.46
2019-02-23T07:17:56.598Z,85.46
2019-02-23T07:18:56.561Z,85.14
2019-02-23T07:19:56.549Z,85.31
2019-02-23T07:20:56.540Z,84.94
2019-02-23T07:21:56.556Z,84.89
2019-02-23T07:22:56.613Z,84.79
2019-02-23T07:23:56.512Z,85.00
2019-02-23T07:24:56.495Z,84.79
2019-02-23T07:25:56.488Z,85.11
2019-02-23T07:26:56.512Z,84.69
2019-02-23T07:27:56.469Z,84.89
2019-02-23T07:28:56.463Z,84.27
2019-02-23T07:29:56.444Z,83.92
2019-02-23T07:30:56.433Z,83.92
2019-02-23T07:31:56.455Z,84.02
2019-02-23T07:32:56.415Z,83.71
2019-02-23T07:33:56.401Z,83.81
2019-02-23T07:34:56.392Z,83.61
2019-02-23T07:35:56.381Z,83.57
2019-02-23T07:36:56.405Z,82.28
2019-02-23T07:37:56.365Z,81.82
2019-02-23T07:38:56.349Z,80.64
2019-02-23T07:39:56.343Z,80.74
2019-02-23T07:40:56.327Z,79.77
2019-02-23T07:41:56.344Z,79.04
2019-02-23T07:42:56.312Z,79.25
2019-02-23T07:43:56.300Z,78.49
2019-02-23T07:44:56.287Z,77.51
2019-02-23T07:45:56.277Z,77.30
2019-02-23T07:46:56.300Z,77.09
2019-02-23T07:47:56.257Z,77.37
2019-02-23T07:48:56.245Z,76.95
2019-02-23T07:49:56.237Z,76.95
2019-02-23T07:50:56.223Z,77.20
2019-02-23T07:51:56.214Z,77.69
2019-02-23T07:52:56.226Z,77.51
2019-02-23T07:53:56.196Z,77.93
2019-02-23T07:54:56.192Z,77.61
2019-02-23T07:55:56.182Z,76.95
2019-02-23T07:56:56.162Z,77.30
2019-02-23T07:57:56.175Z,77.16
2019-02-23T07:58:56.145Z,76.95
2019-02-23T07:59:56.130Z,76.61
2019-02-23T08:00:56.124Z,75.40
2019-02-23T08:01:56.112Z,75.54
2019-02-23T08:02:56.147Z,75.32
2019-02-23T08:03:56.086Z,75.32
2019-02-23T08:04:56.077Z,75.88
2019-02-23T08:05:56.066Z,76.09
2019-02-23T08:06:56.059Z,76.54
2019-02-23T08:07:56.072Z,77.79
2019-02-23T08:08:56.037Z,77.03
2019-02-23T08:09:56.025Z,77.16
2019-02-23T08:10:56.014Z,76.57
2019-02-23T08:11:56.007Z,75.78
2019-02-23T08:12:56.020Z,76.47
2019-02-23T08:13:55.979Z,73.98
2019-02-23T08:14:55.968Z,72.60
2019-02-23T08:15:55.962Z,72.63
2019-02-23T08:16:55.955Z,72.63
2019-02-23T08:17:55.969Z,72.60
2019-02-23T08:18:55.930Z,70.56
2019-02-23T08:19:55.916Z,71.49
2019-02-23T08:20:55.918Z,72.18
2019-02-23T08:21:55.901Z,72.53
2019-02-23T08:22:55.907Z,72.15
2019-02-23T08:23:55.879Z,71.42
2019-02-23T08:24:55.868Z,71.22
2019-02-23T08:25:55.859Z,70.46
2019-02-23T08:26:55.853Z,69.84
2019-02-23T08:27:55.861Z,69.01
2019-02-23T08:28:55.875Z,68.87
2019-02-23T08:29:55.820Z,69.18
2019-02-23T08:30:55.816Z,68.87
2019-02-23T08:31:55.793Z,68.56
2019-02-23T08:32:55.807Z,69.04
2019-02-23T08:33:55.771Z,68.84
2019-02-23T08:34:55.762Z,68.43
2019-02-23T08:35:55.749Z,68.02
2019-02-23T08:36:55.737Z,66.47
2019-02-23T08:37:55.757Z,65.55
2019-02-23T08:38:55.717Z,65.95
2019-02-23T08:39:55.708Z,66.85
2019-02-23T08:40:55.703Z,66.71
2019-02-23T08:41:55.685Z,68.49
2019-02-23T08:42:55.703Z,69.25
2019-02-23T08:43:55.670Z,68.53
2019-02-23T08:44:55.651Z,68.29
2019-02-23T08:45:55.655Z,67.95
2019-02-23T08:46:55.635Z,67.82
2019-02-23T08:47:56.410Z,67.78
2019-02-23T08:48:55.613Z,67.06
2019-02-23T08:49:55.607Z,66.51
2019-02-23T08:50:55.594Z,66.27
2019-02-23T08:51:55.584Z,65.42
2019-02-23T08:52:55.603Z,65.66
2019-02-23T08:53:55.561Z,66.63
2019-02-23T08:54:55.552Z,63.27
2019-02-23T08:55:55.536Z,63.60
2019-02-23T08:56:55.525Z,63.50
2019-02-23T08:57:55.543Z,65.08
2019-02-23T08:58:55.507Z,63.50
2019-02-23T08:59:55.492Z,64.90
2019-02-23T09:00:55.485Z,66.30
2019-02-23T09:01:55.477Z,66.41
2019-02-23T09:02:55.499Z,66.96
2019-02-23T09:03:55.521Z,67.68
2019-02-23T09:04:55.444Z,66.00
2019-02-23T09:05:55.429Z,66.72
2019-02-23T09:06:55.420Z,66.86
2019-02-23T09:07:55.436Z,66.11
2019-02-23T09:08:55.397Z,65.70
2019-02-23T09:10:03.055Z,65.12
2019-02-23T09:10:55.375Z,63.31
2019-02-23T09:11:55.368Z,63.54
2019-02-23T09:12:55.421Z,62.03
2019-02-23T09:13:55.347Z,65.52
2019-02-23T09:14:55.336Z,66.69
2019-02-23T09:15:55.328Z,66.08
2019-02-23T09:16:55.317Z,64.29
2019-02-23T09:17:55.332Z,63.52
2019-02-23T09:18:55.295Z,64.29
2019-02-23T09:19:55.289Z,63.40
2019-02-23T09:20:55.276Z,63.31
2019-02-23T09:21:55.259Z,63.35
2019-02-23T09:23:00.163Z,60.60
2019-02-23T09:23:56.240Z,60.19
2019-02-23T09:24:55.228Z,60.91
2019-02-23T09:25:57.757Z,62.93
2019-02-23T09:26:55.224Z,64.34
2019-02-23T09:27:55.225Z,63.49
2019-02-23T09:28:55.204Z,61.56
2019-02-23T09:29:55.176Z,63.52
2019-02-23T09:30:55.164Z,63.31
2019-02-23T09:31:55.156Z,63.15
2019-02-23T09:32:55.171Z,61.32
2019-02-23T09:33:55.136Z,60.91
2019-02-23T09:34:55.123Z,60.24
2019-02-23T09:35:55.111Z,61.51
2019-02-23T09:36:55.125Z,62.79
2019-02-23T09:37:55.141Z,63.50
2019-02-23T09:38:55.071Z,63.62
2019-02-23T09:39:55.069Z,63.15
2019-02-23T09:40:55.059Z,61.37
2019-02-23T09:41:55.050Z,61.51
2019-02-23T09:42:55.037Z,63.05
2019-02-23T09:43:55.058Z,63.39
2019-02-23T09:44:55.011Z,62.25
2019-02-23T09:45:55.009Z,64.54
2019-02-23T09:46:54.992Z,64.37
2019-02-23T09:47:55.064Z,65.22
2019-02-23T09:48:56.389Z,66.42
2019-02-23T09:49:54.962Z,66.49
2019-02-23T09:50:54.958Z,68.58
2019-02-23T09:51:54.940Z,70.26
2019-02-23T09:52:54.924Z,71.19
2019-02-23T09:53:54.941Z,72.67
2019-02-23T09:54:54.909Z,73.36
2019-02-23T09:55:54.897Z,71.78
2019-02-23T09:56:54.889Z,72.36
2019-02-23T09:57:54.876Z,74.77
2019-02-23T09:58:54.911Z,75.05
2019-02-23T09:59:54.858Z,73.29
2019-02-23T10:00:54.862Z,72.67
2019-02-23T10:01:54.850Z,72.67
2019-02-23T10:02:54.855Z,72.43
2019-02-23T10:03:54.840Z,71.71
2019-02-23T10:04:54.811Z,72.30
2019-02-23T10:05:54.791Z,71.19
2019-02-23T10:06:54.776Z,71.92
2019-02-23T10:07:54.768Z,71.81
2019-02-23T10:08:54.794Z,71.53
2019-02-23T10:09:54.745Z,71.26
2019-02-23T10:10:54.744Z,72.39
2019-02-23T10:11:54.728Z,71.84
2019-02-23T10:12:54.715Z,72.22
2019-02-23T10:13:54.736Z,71.95
2019-02-23T10:14:54.696Z,72.67
2019-02-23T10:15:54.683Z,71.95
2019-02-23T10:16:54.672Z,71.92
2019-02-23T10:17:54.659Z,71.57
2019-02-23T10:18:54.681Z,70.75
2019-02-23T10:19:54.650Z,71.19
2019-02-23T10:20:54.630Z,72.53
2019-02-23T10:21:54.615Z,71.16
2019-02-23T10:22:54.609Z,71.16
2019-02-23T10:23:54.630Z,70.43
2019-02-23T10:24:54.586Z,70.26
2019-02-23T10:25:54.578Z,70.98
2019-02-23T10:26:54.564Z,71.47
2019-02-23T10:27:54.554Z,70.75
2019-02-23T10:28:54.555Z,70.20
2019-02-23T10:29:54.557Z,71.54
2019-02-23T10:30:54.524Z,70.92
2019-02-23T10:31:54.512Z,70.64
2019-02-23T10:32:54.504Z,70.43
2019-02-23T10:33:54.490Z,69.71
2019-02-23T10:34:54.509Z,70.43
2019-02-23T10:35:54.468Z,69.89
2019-02-23T10:36:54.461Z,69.75
2019-02-23T10:37:54.453Z,68.69
2019-02-23T10:38:54.435Z,68.69
2019-02-23T10:39:54.454Z,68.62
2019-02-23T10:40:54.420Z,68.85
2019-02-23T10:41:54.403Z,69.85
2019-02-23T10:42:54.395Z,67.72
2019-02-23T10:43:54.384Z,68.65
2019-02-23T10:44:54.395Z,68.72
2019-02-23T10:45:54.359Z,68.72
2019-02-23T10:46:54.347Z,69.03
2019-02-23T10:47:54.345Z,68.59
2019-02-23T10:48:54.331Z,69.03
2019-02-23T10:49:54.342Z,68.69
2019-02-23T10:50:54.310Z,67.76
2019-02-23T10:51:54.298Z,68.72
2019-02-23T10:52:54.286Z,68.82
2019-02-23T10:53:54.341Z,67.69
2019-02-23T10:54:54.302Z,67.90
2019-02-23T10:55:54.260Z,68.82
2019-02-23T10:56:54.248Z,69.44
2019-02-23T10:57:54.235Z,69.31
2019-02-23T10:58:54.227Z,68.76
2019-02-23T10:59:54.235Z,68.17
2019-02-23T11:00:54.211Z,67.11
2019-02-23T11:01:54.201Z,67.14
2019-02-23T11:02:54.181Z,68.38
2019-02-23T11:03:54.187Z,67.18
2019-02-23T11:04:54.188Z,66.87
2019-02-23T11:05:54.152Z,66.77
2019-02-23T11:06:54.136Z,66.05
2019-02-23T11:07:54.135Z,66.60
2019-02-23T11:08:54.119Z,66.91
2019-02-23T11:09:54.134Z,65.91
2019-02-23T11:10:54.099Z,67.83
2019-02-23T11:11:54.090Z,66.87
2019-02-23T11:12:54.085Z,66.67
2019-02-23T11:13:54.063Z,66.53
2019-02-23T11:14:54.081Z,65.81
2019-02-23T11:15:54.044Z,66.43
2019-02-23T11:16:54.037Z,66.09
2019-02-23T11:17:54.024Z,67.12
2019-02-23T11:18:54.018Z,65.99
2019-02-23T11:19:54.046Z,66.43
2019-02-23T11:20:53.991Z,66.25
2019-02-23T11:21:53.985Z,66.77
2019-02-23T11:22:53.975Z,66.12
2019-02-23T11:23:53.964Z,66.33
2019-02-23T11:24:53.977Z,66.43
2019-02-23T11:25:53.944Z,65.19
2019-02-23T11:26:53.936Z,66.64
2019-02-23T11:27:53.935Z,65.50
2019-02-23T11:28:53.916Z,64.89
2019-02-23T11:29:53.924Z,65.64
2019-02-23T11:30:53.894Z,65.50
2019-02-23T11:31:53.881Z,65.50
2019-02-23T11:32:53.868Z,64.89
2019-02-23T11:33:53.867Z,66.43
2019-02-23T11:34:53.872Z,65.40
2019-02-23T11:35:53.843Z,65.50
2019-02-23T11:36:53.832Z,65.09
2019-02-23T11:37:53.821Z,64.89
2019-02-23T11:38:53.804Z,64.96
2019-02-23T11:39:53.838Z,64.24
2019-02-23T11:40:53.785Z,63.90
2019-02-23T11:41:53.775Z,62.84
2019-02-23T11:42:53.800Z,63.49
2019-02-23T11:43:53.750Z,65.13
2019-02-23T11:44:53.740Z,63.28
2019-02-23T11:45:53.782Z,64.39
2019-02-23T11:47:00.421Z,63.43
2019-02-23T11:47:54.710Z,61.65
2019-02-23T11:48:53.701Z,62.37
2019-02-23T11:49:53.688Z,62.53
2019-02-23T11:50:53.716Z,63.56
2019-02-23T11:51:53.672Z,63.67
2019-02-23T11:52:53.658Z,64.28
2019-02-23T11:53:55.199Z,63.43
2019-02-23T11:54:53.639Z,63.64
2019-02-23T11:55:53.650Z,62.12
2019-02-23T11:56:53.618Z,63.67
2019-02-23T11:57:53.605Z,63.02
2019-02-23T11:58:53.592Z,64.15
2019-02-23T11:59:53.582Z,62.48
2019-02-23T12:00:53.599Z,61.93
2019-02-23T12:01:53.561Z,62.62
2019-02-23T12:02:53.548Z,61.32
2019-02-23T12:03:53.535Z,63.60
2019-02-23T12:04:53.524Z,63.37
2019-02-23T12:05:53.543Z,63.27
2019-02-23T12:06:53.505Z,61.93
2019-02-23T12:07:53.491Z,63.57
2019-02-23T12:08:53.543Z,60.49
2019-02-23T12:09:53.474Z,60.93
2019-02-23T12:10:53.488Z,62.06
2019-02-23T12:11:53.472Z,62.45
2019-02-23T12:12:53.477Z,63.06
2019-02-23T12:13:53.429Z,61.21
2019-02-23T12:14:53.429Z,59.98
2019-02-23T12:15:53.430Z,59.47
2019-02-23T12:16:53.402Z,61.24
2019-02-23T12:17:53.389Z,61.42
2019-02-23T12:18:53.388Z,61.62
2019-02-23T12:19:55.317Z,60.98
2019-02-23T12:20:53.371Z,60.67
2019-02-23T12:21:53.341Z,61.44
2019-02-23T12:22:53.343Z,61.24
2019-02-23T12:23:53.325Z,61.62
2019-02-23T12:24:53.311Z,61.52
2019-02-23T12:25:53.325Z,61.24
2019-02-23T12:26:53.287Z,60.60
2019-02-23T12:27:53.284Z,58.95
2019-02-23T12:28:53.263Z,59.59
2019-02-23T12:29:53.255Z,59.57
2019-02-23T12:30:53.275Z,59.36
2019-02-23T12:31:53.236Z,59.36
2019-02-23T12:32:53.222Z,58.03
2019-02-23T12:33:53.210Z,59.16
2019-02-23T12:34:53.271Z,59.95
2019-02-23T12:35:53.227Z,58.90
2019-02-23T12:36:53.171Z,58.28
2019-02-23T12:37:53.168Z,58.49
2019-02-23T12:38:53.164Z,57.77
2019-02-23T12:39:53.148Z,56.43
2019-02-23T12:40:53.158Z,57.77
2019-02-23T12:41:53.120Z,55.49
2019-02-23T12:42:53.112Z,55.59
2019-02-23T12:43:53.099Z,55.69
2019-02-23T12:44:53.091Z,56.05
2019-02-23T12:45:53.176Z,56.77
2019-02-23T12:46:53.072Z,59.23
2019-02-23T12:47:53.057Z,59.08
2019-02-23T12:48:53.050Z,58.46
2019-02-23T12:49:53.110Z,55.30
2019-02-23T12:50:53.048Z,57.36
2019-02-23T12:51:53.017Z,56.71